sensor_id;sensor_type;location;lat;lon;timestamp;pressure;altitude;pressure_sealevel;temperature;humidity
21574;BME280;10948;48.706;9.258;2022-11-20T00:01:27;97290.25;;;6.64;100.00
21574;BME280;10948;48.706;9.258;2022-11-20T00:03:53;97281.69;;;6.46;100.00
21574;BME280;10948;48.706;9.258;2022-11-20T00:06:19;97288.34;;;6.50;100.00
21574;BME280;10948;48.706;9.258;2022-11-20T00:08:45;97287.84;;;6.44;100.00
21574;BME280;10948;48.706;9.258;2022-11-20T00:11:14;97281.31;;;6.37;100.00
21574;BME280;10948;48.706;9.258;2022-11-20T00:13:39;97295.84;;;6.22;100.00
21574;BME280;10948;48.706;9.258;2022-11-20T00:16:05;97289.81;;;6.39;100.00
21574;BME280;10948;48.706;9.258;2022-11-20T00:18:32;97287.97;;;6.25;100.00
21574;BME280;10948;48.706;9.258;2022-11-20T00:21:04;97297.50;;;6.23;100.00
21574;BME280;10948;48.706;9.258;2022-11-20T00:23:30;97296.84;;;6.20;100.00
21574;BME280;10948;48.706;9.258;2022-11-20T00:25:55;97298.22;;;6.10;100.00
21574;BME280;10948;48.706;9.258;2022-11-20T00:28:20;97295.63;;;6.10;100.00
21574;BME280;10948;48.706;9.258;2022-11-20T00:30:45;97297.53;;;6.06;100.00
21574;BME280;10948;48.706;9.258;2022-11-20T00:33:11;97292.75;;;6.16;100.00
21574;BME280;10948;48.706;9.258;2022-11-20T00:35:36;97292.06;;;6.12;100.00
21574;BME280;10948;48.706;9.258;2022-11-20T00:38:01;97302.06;;;6.35;100.00
21574;BME280;10948;48.706;9.258;2022-11-20T00:40:26;97290.97;;;6.33;100.00
21574;BME280;10948;48.706;9.258;2022-11-20T00:42:52;97296.59;;;6.24;100.00
21574;BME280;10948;48.706;9.258;2022-11-20T00:45:17;97293.75;;;6.13;100.00
21574;BME280;10948;48.706;9.258;2022-11-20T00:47:42;97293.06;;;6.10;100.00
21574;BME280;10948;48.706;9.258;2022-11-20T00:50:07;97297.38;;;6.09;100.00
21574;BME280;10948;48.706;9.258;2022-11-20T00:52:33;97293.25;;;6.22;100.00
21574;BME280;10948;48.706;9.258;2022-11-20T00:54:58;97296.56;;;6.09;100.00
21574;BME280;10948;48.706;9.258;2022-11-20T00:57:23;97302.84;;;6.03;100.00
21574;BME280;10948;48.706;9.258;2022-11-20T00:59:48;97300.06;;;6.08;100.00
21574;BME280;10948;48.706;9.258;2022-11-20T01:02:13;97306.63;;;5.96;100.00
21574;BME280;10948;48.706;9.258;2022-11-20T01:04:41;97313.72;;;6.10;100.00
21574;BME280;10948;48.706;9.258;2022-11-20T01:07:06;97312.81;;;6.28;100.00
21574;BME280;10948;48.706;9.258;2022-11-20T01:09:31;97310.72;;;6.34;100.00
21574;BME280;10948;48.706;9.258;2022-11-20T01:11:57;97311.66;;;6.33;100.00
21574;BME280;10948;48.706;9.258;2022-11-20T01:14:22;97309.06;;;6.33;100.00
21574;BME280;10948;48.706;9.258;2022-11-20T01:16:51;97314.38;;;6.30;100.00
21574;BME280;10948;48.706;9.258;2022-11-20T01:19:17;97313.78;;;6.25;100.00
21574;BME280;10948;48.706;9.258;2022-11-20T01:21:44;97307.22;;;6.35;100.00
21574;BME280;10948;48.706;9.258;2022-11-20T01:24:13;97311.19;;;6.42;100.00
21574;BME280;10948;48.706;9.258;2022-11-20T01:26:40;97313.63;;;6.45;100.00
21574;BME280;10948;48.706;9.258;2022-11-20T01:29:05;97322.38;;;6.43;100.00
21574;BME280;10948;48.706;9.258;2022-11-20T01:31:35;97321.22;;;6.48;100.00
21574;BME280;10948;48.706;9.258;2022-11-20T01:34:02;97317.13;;;6.44;100.00
21574;BME280;10948;48.706;9.258;2022-11-20T01:36:28;97319.53;;;6.47;100.00
21574;BME280;10948;48.706;9.258;2022-11-20T01:38:54;97317.44;;;6.38;100.00
21574;BME280;10948;48.706;9.258;2022-11-20T01:41:20;97312.25;;;6.38;100.00
21574;BME280;10948;48.706;9.258;2022-11-20T01:44:04;97306.94;;;6.41;100.00
21574;BME280;10948;48.706;9.258;2022-11-20T01:46:34;97302.97;;;6.34;100.00
21574;BME280;10948;48.706;9.258;2022-11-20T01:49:02;97308.16;;;6.34;100.00
21574;BME280;10948;48.706;9.258;2022-11-20T01:51:45;97304.34;;;6.24;100.00
21574;BME280;10948;48.706;9.258;2022-11-20T01:54:13;97301.41;;;6.15;100.00
21574;BME280;10948;48.706;9.258;2022-11-20T01:56:42;97304.59;;;6.20;100.00
21574;BME280;10948;48.706;9.258;2022-11-20T01:59:08;97304.44;;;6.23;100.00
21574;BME280;10948;48.706;9.258;2022-11-20T02:01:35;97300.25;;;6.03;100.00
21574;BME280;10948;48.706;9.258;2022-11-20T02:04:00;97297.16;;;5.97;100.00
21574;BME280;10948;48.706;9.258;2022-11-20T02:06:30;97293.97;;;5.92;100.00
21574;BME280;10948;48.706;9.258;2022-11-20T02:08:57;97303.59;;;5.88;100.00
21574;BME280;10948;48.706;9.258;2022-11-20T02:11:22;97300.09;;;5.89;100.00
21574;BME280;10948;48.706;9.258;2022-11-20T02:13:48;97305.72;;;5.80;100.00
21574;BME280;10948;48.706;9.258;2022-11-20T02:18:39;97309.22;;;5.79;100.00
21574;BME280;10948;48.706;9.258;2022-11-20T02:26:28;97311.44;;;5.68;100.00
21574;BME280;10948;48.706;9.258;2022-11-20T02:28:54;97308.09;;;5.85;100.00
21574;BME280;10948;48.706;9.258;2022-11-20T02:31:20;97308.00;;;5.68;100.00
21574;BME280;10948;48.706;9.258;2022-11-20T02:33:45;97311.81;;;5.79;100.00
21574;BME280;10948;48.706;9.258;2022-11-20T02:36:11;97312.75;;;5.77;100.00
21574;BME280;10948;48.706;9.258;2022-11-20T02:38:39;97312.69;;;5.78;100.00
21574;BME280;10948;48.706;9.258;2022-11-20T02:41:04;97311.72;;;5.81;100.00
21574;BME280;10948;48.706;9.258;2022-11-20T02:43:29;97310.44;;;5.89;100.00
21574;BME280;10948;48.706;9.258;2022-11-20T02:45:54;97312.03;;;5.92;100.00
21574;BME280;10948;48.706;9.258;2022-11-20T02:48:19;97313.94;;;5.88;100.00
21574;BME280;10948;48.706;9.258;2022-11-20T02:50:45;97312.81;;;5.75;100.00
21574;BME280;10948;48.706;9.258;2022-11-20T02:53:10;97318.16;;;5.72;100.00
21574;BME280;10948;48.706;9.258;2022-11-20T02:55:35;97321.22;;;5.80;100.00
21574;BME280;10948;48.706;9.258;2022-11-20T02:58:01;97316.31;;;5.74;100.00
21574;BME280;10948;48.706;9.258;2022-11-20T03:00:26;97326.75;;;5.54;100.00
21574;BME280;10948;48.706;9.258;2022-11-20T03:02:51;97327.09;;;5.65;100.00
21574;BME280;10948;48.706;9.258;2022-11-20T03:05:16;97324.50;;;5.65;100.00
21574;BME280;10948;48.706;9.258;2022-11-20T03:07:43;97324.78;;;5.59;100.00
21574;BME280;10948;48.706;9.258;2022-11-20T03:10:08;97330.50;;;5.66;100.00
21574;BME280;10948;48.706;9.258;2022-11-20T03:12:33;97323.44;;;5.69;100.00
21574;BME280;10948;48.706;9.258;2022-11-20T03:14:59;97316.91;;;5.62;100.00
21574;BME280;10948;48.706;9.258;2022-11-20T03:17:24;97322.91;;;5.63;100.00
21574;BME280;10948;48.706;9.258;2022-11-20T03:19:49;97317.28;;;5.72;100.00
21574;BME280;10948;48.706;9.258;2022-11-20T03:22:14;97311.31;;;5.71;100.00
21574;BME280;10948;48.706;9.258;2022-11-20T03:24:39;97316.59;;;5.68;100.00
21574;BME280;10948;48.706;9.258;2022-11-20T03:27:05;97313.41;;;5.82;100.00
21574;BME280;10948;48.706;9.258;2022-11-20T03:29:30;97306.19;;;5.88;100.00
21574;BME280;10948;48.706;9.258;2022-11-20T03:31:55;97295.09;;;5.86;100.00
21574;BME280;10948;48.706;9.258;2022-11-20T03:34:20;97304.00;;;5.98;100.00
21574;BME280;10948;48.706;9.258;2022-11-20T03:36:46;97308.16;;;6.00;100.00
21574;BME280;10948;48.706;9.258;2022-11-20T03:39:11;97310.31;;;5.92;100.00
21574;BME280;10948;48.706;9.258;2022-11-20T03:41:37;97314.25;;;5.99;100.00
21574;BME280;10948;48.706;9.258;2022-11-20T03:44:03;97309.66;;;6.04;100.00
21574;BME280;10948;48.706;9.258;2022-11-20T03:46:29;97309.66;;;6.04;100.00
21574;BME280;10948;48.706;9.258;2022-11-20T03:48:54;97303.00;;;6.00;100.00
21574;BME280;10948;48.706;9.258;2022-11-20T03:51:20;97302.16;;;6.00;100.00
21574;BME280;10948;48.706;9.258;2022-11-20T03:53:47;97308.09;;;5.85;100.00
21574;BME280;10948;48.706;9.258;2022-11-20T03:56:13;97312.25;;;5.87;100.00
21574;BME280;10948;48.706;9.258;2022-11-20T03:58:39;97308.41;;;5.77;100.00
21574;BME280;10948;48.706;9.258;2022-11-20T04:01:05;97307.66;;;5.75;100.00
21574;BME280;10948;48.706;9.258;2022-11-20T04:03:31;97309.16;;;5.62;100.00
21574;BME280;10948;48.706;9.258;2022-11-20T04:06:00;97305.25;;;5.72;100.00
21574;BME280;10948;48.706;9.258;2022-11-20T04:08:26;97312.13;;;5.72;100.00
21574;BME280;10948;48.706;9.258;2022-11-20T04:10:51;97307.94;;;5.69;100.00
21574;BME280;10948;48.706;9.258;2022-11-20T04:13:16;97315.41;;;5.75;100.00
21574;BME280;10948;48.706;9.258;2022-11-20T04:15:41;97314.59;;;5.56;100.00
21574;BME280;10948;48.706;9.258;2022-11-20T04:18:06;97309.22;;;5.61;100.00
21574;BME280;10948;48.706;9.258;2022-11-20T04:20:32;97304.44;;;5.70;100.00
21574;BME280;10948;48.706;9.258;2022-11-20T04:22:57;97301.28;;;5.65;100.00
21574;BME280;10948;48.706;9.258;2022-11-20T04:25:22;97297.09;;;5.63;100.00
21574;BME280;10948;48.706;9.258;2022-11-20T04:27:47;97291.94;;;5.63;100.00
21574;BME280;10948;48.706;9.258;2022-11-20T04:30:13;97293.84;;;5.59;100.00
21574;BME280;10948;48.706;9.258;2022-11-20T04:32:38;97288.03;;;5.54;100.00
21574;BME280;10948;48.706;9.258;2022-11-20T04:35:03;97289.03;;;5.52;100.00
21574;BME280;10948;48.706;9.258;2022-11-20T04:37:28;97290.16;;;5.46;100.00
21574;BME280;10948;48.706;9.258;2022-11-20T04:39:54;97290.69;;;5.53;100.00
21574;BME280;10948;48.706;9.258;2022-11-20T04:42:19;97290.19;;;5.63;100.00
21574;BME280;10948;48.706;9.258;2022-11-20T04:44:53;97284.72;;;5.69;100.00
21574;BME280;10948;48.706;9.258;2022-11-20T04:47:18;97286.25;;;5.73;100.00
21574;BME280;10948;48.706;9.258;2022-11-20T04:49:43;97286.09;;;5.59;100.00
21574;BME280;10948;48.706;9.258;2022-11-20T04:52:09;97287.31;;;5.69;100.00
21574;BME280;10948;48.706;9.258;2022-11-20T04:54:34;97289.25;;;5.64;100.00
21574;BME280;10948;48.706;9.258;2022-11-20T04:56:59;97281.09;;;5.73;100.00
21574;BME280;10948;48.706;9.258;2022-11-20T04:59:24;97286.00;;;5.79;100.00
21574;BME280;10948;48.706;9.258;2022-11-20T05:01:49;97275.19;;;5.88;100.00
21574;BME280;10948;48.706;9.258;2022-11-20T05:04:15;97284.22;;;6.14;100.00
21574;BME280;10948;48.706;9.258;2022-11-20T05:06:40;97276.56;;;6.12;100.00
21574;BME280;10948;48.706;9.258;2022-11-20T05:09:05;97274.06;;;6.11;100.00
21574;BME280;10948;48.706;9.258;2022-11-20T05:11:31;97277.41;;;5.96;100.00
21574;BME280;10948;48.706;9.258;2022-11-20T05:13:57;97280.22;;;5.91;100.00
21574;BME280;10948;48.706;9.258;2022-11-20T05:16:23;97282.03;;;5.89;100.00
21574;BME280;10948;48.706;9.258;2022-11-20T05:18:49;97275.94;;;5.90;100.00
21574;BME280;10948;48.706;9.258;2022-11-20T05:21:15;97281.66;;;5.97;100.00
21574;BME280;10948;48.706;9.258;2022-11-20T05:23:40;97271.84;;;6.03;100.00
21574;BME280;10948;48.706;9.258;2022-11-20T05:26:06;97272.09;;;5.99;100.00
21574;BME280;10948;48.706;9.258;2022-11-20T05:28:32;97280.38;;;6.05;100.00
21574;BME280;10948;48.706;9.258;2022-11-20T05:31:07;97280.66;;;6.16;100.00
21574;BME280;10948;48.706;9.258;2022-11-20T05:33:33;97285.06;;;6.14;100.00
21574;BME280;10948;48.706;9.258;2022-11-20T05:35:59;97280.59;;;6.18;100.00
21574;BME280;10948;48.706;9.258;2022-11-20T05:38:24;97277.75;;;6.22;100.00
21574;BME280;10948;48.706;9.258;2022-11-20T05:40:50;97276.41;;;6.15;100.00
21574;BME280;10948;48.706;9.258;2022-11-20T05:43:15;97276.28;;;6.18;100.00
21574;BME280;10948;48.706;9.258;2022-11-20T05:45:40;97267.13;;;6.28;100.00
21574;BME280;10948;48.706;9.258;2022-11-20T05:48:05;97267.75;;;6.16;100.00
21574;BME280;10948;48.706;9.258;2022-11-20T05:50:30;97268.78;;;6.29;100.00
21574;BME280;10948;48.706;9.258;2022-11-20T05:52:59;97272.91;;;6.16;100.00
21574;BME280;10948;48.706;9.258;2022-11-20T05:55:25;97267.19;;;6.27;100.00
21574;BME280;10948;48.706;9.258;2022-11-20T05:57:51;97278.06;;;6.16;100.00
21574;BME280;10948;48.706;9.258;2022-11-20T06:00:17;97272.91;;;6.16;100.00
21574;BME280;10948;48.706;9.258;2022-11-20T06:02:43;97277.16;;;6.17;100.00
21574;BME280;10948;48.706;9.258;2022-11-20T06:05:08;97274.75;;;6.14;100.00
21574;BME280;10948;48.706;9.258;2022-11-20T06:07:33;97282.25;;;6.19;100.00
21574;BME280;10948;48.706;9.258;2022-11-20T06:09:58;97284.28;;;6.29;100.00
21574;BME280;10948;48.706;9.258;2022-11-20T06:12:24;97284.28;;;6.29;100.00
21574;BME280;10948;48.706;9.258;2022-11-20T06:14:49;97282.16;;;6.37;100.00
21574;BME280;10948;48.706;9.258;2022-11-20T06:17:14;97284.78;;;6.20;100.00
21574;BME280;10948;48.706;9.258;2022-11-20T06:19:39;97282.06;;;6.39;100.00
21574;BME280;10948;48.706;9.258;2022-11-20T06:22:04;97280.66;;;6.33;100.00
21574;BME280;10948;48.706;9.258;2022-11-20T06:24:30;97281.56;;;6.15;100.00
21574;BME280;10948;48.706;9.258;2022-11-20T06:26:55;97289.94;;;6.20;100.00
21574;BME280;10948;48.706;9.258;2022-11-20T06:29:20;97275.34;;;6.19;100.00
21574;BME280;10948;48.706;9.258;2022-11-20T06:31:45;97281.63;;;6.14;100.00
21574;BME280;10948;48.706;9.258;2022-11-20T06:34:11;97290.06;;;6.17;100.00
21574;BME280;10948;48.706;9.258;2022-11-20T06:36:36;97286.75;;;6.15;100.00
21574;BME280;10948;48.706;9.258;2022-11-20T06:39:01;97287.84;;;6.27;100.00
21574;BME280;10948;48.706;9.258;2022-11-20T06:41:27;97288.84;;;6.24;100.00
21574;BME280;10948;48.706;9.258;2022-11-20T06:43:52;97287.72;;;6.30;100.00
21574;BME280;10948;48.706;9.258;2022-11-20T06:46:18;97284.91;;;6.34;100.00
21574;BME280;10948;48.706;9.258;2022-11-20T06:48:44;97286.25;;;6.24;100.00
21574;BME280;10948;48.706;9.258;2022-11-20T06:51:09;97288.94;;;6.23;100.00
21574;BME280;10948;48.706;9.258;2022-11-20T06:53:35;97293.13;;;6.25;100.00
21574;BME280;10948;48.706;9.258;2022-11-20T06:56:00;97279.72;;;6.34;100.00
21574;BME280;10948;48.706;9.258;2022-11-20T06:58:26;97286.06;;;6.29;100.00
21574;BME280;10948;48.706;9.258;2022-11-20T07:00:52;97282.94;;;6.22;100.00
21574;BME280;10948;48.706;9.258;2022-11-20T07:03:17;97283.84;;;6.04;100.00
21574;BME280;10948;48.706;9.258;2022-11-20T07:05:42;97288.25;;;6.19;100.00
21574;BME280;10948;48.706;9.258;2022-11-20T07:08:08;97289.56;;;6.28;100.00
21574;BME280;10948;48.706;9.258;2022-11-20T07:10:34;97298.00;;;6.31;100.00
21574;BME280;10948;48.706;9.258;2022-11-20T07:12:59;97293.13;;;6.25;100.00
21574;BME280;10948;48.706;9.258;2022-11-20T07:15:25;97296.63;;;6.07;100.00
21574;BME280;10948;48.706;9.258;2022-11-20T07:17:50;97297.91;;;6.16;100.00
21574;BME280;10948;48.706;9.258;2022-11-20T07:20:15;97305.06;;;6.28;100.00
21574;BME280;10948;48.706;9.258;2022-11-20T07:22:41;97298.16;;;6.11;100.00
21574;BME280;10948;48.706;9.258;2022-11-20T07:25:06;97302.81;;;6.37;100.00
21574;BME280;10948;48.706;9.258;2022-11-20T07:27:32;97298.25;;;6.42;100.00
21574;BME280;10948;48.706;9.258;2022-11-20T07:29:57;97295.66;;;6.59;100.00
21574;BME280;10948;48.706;9.258;2022-11-20T07:32:23;97286.22;;;6.58;100.00
21574;BME280;10948;48.706;9.258;2022-11-20T07:34:48;97290.06;;;6.51;100.00
21574;BME280;10948;48.706;9.258;2022-11-20T07:37:14;97296.09;;;6.67;100.00
21574;BME280;10948;48.706;9.258;2022-11-20T07:39:39;97297.28;;;6.93;100.00
21574;BME280;10948;48.706;9.258;2022-11-20T07:42:05;97302.91;;;7.16;100.00
21574;BME280;10948;48.706;9.258;2022-11-20T07:44:31;97302.16;;;7.14;100.00
21574;BME280;10948;48.706;9.258;2022-11-20T07:46:56;97309.59;;;7.20;100.00
21574;BME280;10948;48.706;9.258;2022-11-20T07:49:21;97296.72;;;7.03;100.00
21574;BME280;10948;48.706;9.258;2022-11-20T07:51:47;97305.16;;;7.07;100.00
21574;BME280;10948;48.706;9.258;2022-11-20T07:54:14;97302.47;;;7.08;100.00
21574;BME280;10948;48.706;9.258;2022-11-20T07:56:40;97308.16;;;7.61;100.00
21574;BME280;10948;48.706;9.258;2022-11-20T07:59:05;97307.34;;;7.45;100.00
21574;BME280;10948;48.706;9.258;2022-11-20T08:01:30;97306.22;;;7.80;100.00
21574;BME280;10948;48.706;9.258;2022-11-20T08:03:56;97307.91;;;8.96;100.00
21574;BME280;10948;48.706;9.258;2022-11-20T08:06:21;97307.34;;;8.49;100.00
21574;BME280;10948;48.706;9.258;2022-11-20T08:08:46;97305.81;;;9.96;100.00
21574;BME280;10948;48.706;9.258;2022-11-20T08:11:11;97306.13;;;9.25;100.00
21574;BME280;10948;48.706;9.258;2022-11-20T08:13:57;97312.03;;;7.99;100.00
21574;BME280;10948;48.706;9.258;2022-11-20T08:16:40;97326.00;;;7.81;100.00
21574;BME280;10948;48.706;9.258;2022-11-20T08:19:05;97322.44;;;7.68;100.00
21574;BME280;10948;48.706;9.258;2022-11-20T08:21:31;97321.50;;;7.69;100.00
21574;BME280;10948;48.706;9.258;2022-11-20T08:23:56;97326.47;;;7.58;100.00
21574;BME280;10948;48.706;9.258;2022-11-20T08:26:22;97327.69;;;7.67;100.00
21574;BME280;10948;48.706;9.258;2022-11-20T08:28:48;97329.72;;;7.31;100.00
21574;BME280;10948;48.706;9.258;2022-11-20T08:31:13;97322.63;;;7.34;100.00
21574;BME280;10948;48.706;9.258;2022-11-20T08:33:38;97330.06;;;7.40;100.00
21574;BME280;10948;48.706;9.258;2022-11-20T08:36:04;97332.72;;;7.54;100.00
21574;BME280;10948;48.706;9.258;2022-11-20T08:38:30;97332.03;;;7.35;100.00
21574;BME280;10948;48.706;9.258;2022-11-20T08:40:58;97331.56;;;7.44;100.00
21574;BME280;10948;48.706;9.258;2022-11-20T08:43:43;97331.72;;;7.41;100.00
21574;BME280;10948;48.706;9.258;2022-11-20T08:46:08;97331.03;;;7.38;100.00
21574;BME280;10948;48.706;9.258;2022-11-20T08:48:33;97339.22;;;7.46;100.00
21574;BME280;10948;48.706;9.258;2022-11-20T08:50:58;97339.56;;;7.40;100.00
21574;BME280;10948;48.706;9.258;2022-11-20T08:53:24;97339.41;;;7.43;100.00
21574;BME280;10948;48.706;9.258;2022-11-20T08:55:49;97333.38;;;7.58;100.00
21574;BME280;10948;48.706;9.258;2022-11-20T08:58:15;97340.16;;;7.60;100.00
21574;BME280;10948;48.706;9.258;2022-11-20T09:00:40;97336.56;;;7.47;100.00
21574;BME280;10948;48.706;9.258;2022-11-20T09:03:05;97339.88;;;7.65;100.00
21574;BME280;10948;48.706;9.258;2022-11-20T09:05:30;97339.63;;;7.69;100.00
21574;BME280;10948;48.706;9.258;2022-11-20T09:07:56;97337.56;;;7.76;100.00
21574;BME280;10948;48.706;9.258;2022-11-20T09:10:21;97335.69;;;7.93;100.00
21574;BME280;10948;48.706;9.258;2022-11-20T09:12:48;97336.13;;;8.15;100.00
21574;BME280;10948;48.706;9.258;2022-11-20T09:15:13;97343.84;;;8.01;100.00
21574;BME280;10948;48.706;9.258;2022-11-20T09:17:38;97336.88;;;8.17;100.00
21574;BME280;10948;48.706;9.258;2022-11-20T09:20:04;97338.97;;;8.26;100.00
21574;BME280;10948;48.706;9.258;2022-11-20T09:22:29;97345.16;;;8.08;100.00
21574;BME280;10948;48.706;9.258;2022-11-20T09:24:55;97337.78;;;8.16;100.00
21574;BME280;10948;48.706;9.258;2022-11-20T09:27:20;97339.00;;;7.95;100.00
21574;BME280;10948;48.706;9.258;2022-11-20T09:29:46;97348.69;;;8.07;100.00
21574;BME280;10948;48.706;9.258;2022-11-20T09:32:11;97355.88;;;8.02;100.00
21574;BME280;10948;48.706;9.258;2022-11-20T09:34:36;97356.66;;;8.04;100.00
21574;BME280;10948;48.706;9.258;2022-11-20T09:37:02;97349.25;;;8.12;100.00
21574;BME280;10948;48.706;9.258;2022-11-20T09:39:27;97354.94;;;8.03;100.00
21574;BME280;10948;48.706;9.258;2022-11-20T09:47:16;97356.41;;;7.93;100.00
21574;BME280;10948;48.706;9.258;2022-11-20T09:52:20;97351.84;;;8.12;100.00
21574;BME280;10948;48.706;9.258;2022-11-20T09:54:47;97355.31;;;7.97;100.00
21574;BME280;10948;48.706;9.258;2022-11-20T09:57:24;97364.22;;;8.07;100.00
21574;BME280;10948;48.706;9.258;2022-11-20T09:59:59;97355.72;;;8.05;100.00
21574;BME280;10948;48.706;9.258;2022-11-20T10:02:30;97350.00;;;8.14;100.00
21574;BME280;10948;48.706;9.258;2022-11-20T10:07:40;97341.94;;;8.34;100.00
21574;BME280;10948;48.706;9.258;2022-11-20T10:10:13;97355.72;;;8.21;100.00
21574;BME280;10948;48.706;9.258;2022-11-20T10:30:33;97353.66;;;8.55;100.00
21574;BME280;10948;48.706;9.258;2022-11-20T10:33:03;97361.09;;;8.32;100.00
21574;BME280;10948;48.706;9.258;2022-11-20T10:38:23;97364.53;;;8.32;100.00
21574;BME280;10948;48.706;9.258;2022-11-20T10:40:51;97367.19;;;8.46;100.00
21574;BME280;10948;48.706;9.258;2022-11-20T10:43:19;97362.53;;;8.37;100.00
21574;BME280;10948;48.706;9.258;2022-11-20T10:45:48;97373.59;;;8.25;100.00
21574;BME280;10948;48.706;9.258;2022-11-20T10:48:16;97376.75;;;8.30;100.00
21574;BME280;10948;48.706;9.258;2022-11-20T10:53:24;97373.00;;;8.20;100.00
21574;BME280;10948;48.706;9.258;2022-11-20T10:55:58;97369.22;;;8.10;100.00
21574;BME280;10948;48.706;9.258;2022-11-20T10:58:40;97361.81;;;8.04;100.00
21574;BME280;10948;48.706;9.258;2022-11-20T11:01:14;97363.69;;;8.16;100.00
21574;BME280;10948;48.706;9.258;2022-11-20T11:03:40;97367.41;;;8.12;100.00
21574;BME280;10948;48.706;9.258;2022-11-20T11:06:10;97358.38;;;8.04;100.00
21574;BME280;10948;48.706;9.258;2022-11-20T11:08:39;97365.31;;;8.03;100.00
21574;BME280;10948;48.706;9.258;2022-11-20T11:11:18;97356.41;;;7.93;100.00
21574;BME280;10948;48.706;9.258;2022-11-20T11:13:45;97356.81;;;8.01;100.00
21574;BME280;10948;48.706;9.258;2022-11-20T11:16:24;97353.94;;;8.06;100.00
21574;BME280;10948;48.706;9.258;2022-11-20T11:18:49;97353.22;;;8.19;100.00
21574;BME280;10948;48.706;9.258;2022-11-20T11:21:21;97343.63;;;8.35;100.00
21574;BME280;10948;48.706;9.258;2022-11-20T11:23:48;97342.53;;;8.39;100.00
21574;BME280;10948;48.706;9.258;2022-11-20T11:26:22;97332.81;;;8.43;100.00
21574;BME280;10948;48.706;9.258;2022-11-20T11:28:57;97334.78;;;8.53;100.00
21574;BME280;10948;48.706;9.258;2022-11-20T11:31:27;97324.13;;;8.58;100.00
21574;BME280;10948;48.706;9.258;2022-11-20T11:34:03;97324.97;;;8.72;100.00
21574;BME280;10948;48.706;9.258;2022-11-20T11:36:28;97315.34;;;9.02;100.00
21574;BME280;10948;48.706;9.258;2022-11-20T11:38:53;97311.66;;;9.47;100.00
21574;BME280;10948;48.706;9.258;2022-11-20T11:41:20;97302.72;;;12.13;100.00
21574;BME280;10948;48.706;9.258;2022-11-20T11:43:52;97300.88;;;12.26;98.02
21574;BME280;10948;48.706;9.258;2022-11-20T11:46:37;97302.56;;;10.58;100.00
21574;BME280;10948;48.706;9.258;2022-11-20T11:54:20;97297.28;;;9.82;100.00
21574;BME280;10948;48.706;9.258;2022-11-20T11:56:48;97292.66;;;10.88;100.00
21574;BME280;10948;48.706;9.258;2022-11-20T11:59:15;97281.78;;;13.15;90.38
21574;BME280;10948;48.706;9.258;2022-11-20T12:01:59;97270.88;;;13.32;86.09
21574;BME280;10948;48.706;9.258;2022-11-20T12:04:48;97274.41;;;12.76;87.89
21574;BME280;10948;48.706;9.258;2022-11-20T12:09:47;97268.44;;;12.52;90.71
21574;BME280;10948;48.706;9.258;2022-11-20T12:12:22;97269.06;;;12.21;91.34
21574;BME280;10948;48.706;9.258;2022-11-20T12:14:49;97268.16;;;12.33;94.40
21574;BME280;10948;48.706;9.258;2022-11-20T12:17:18;97262.97;;;12.55;87.02
21574;BME280;10948;48.706;9.258;2022-11-20T12:19:43;97271.19;;;12.83;91.22
21574;BME280;10948;48.706;9.258;2022-11-20T12:30:08;97258.31;;;10.33;97.78
21574;BME280;10948;48.706;9.258;2022-11-20T12:37:53;97253.50;;;10.27;96.32
21574;BME280;10948;48.706;9.258;2022-11-20T12:40:35;97256.97;;;10.01;94.81
21574;BME280;10948;48.706;9.258;2022-11-20T12:43:22;97254.69;;;9.97;93.22
21574;BME280;10948;48.706;9.258;2022-11-20T12:56:48;97264.34;;;10.71;90.29
21574;BME280;10948;48.706;9.258;2022-11-20T13:07:13;97253.81;;;12.27;75.38
21574;BME280;10948;48.706;9.258;2022-11-20T13:09:43;97255.91;;;10.80;81.94
21574;BME280;10948;48.706;9.258;2022-11-20T13:14:42;97258.84;;;10.38;85.85
21574;BME280;10948;48.706;9.258;2022-11-20T13:17:19;97258.19;;;10.22;87.85
21574;BME280;10948;48.706;9.258;2022-11-20T13:19:49;97254.34;;;10.40;88.90
21574;BME280;10948;48.706;9.258;2022-11-20T13:22:23;97259.19;;;11.07;83.16
21574;BME280;10948;48.706;9.258;2022-11-20T13:24:52;97253.66;;;11.11;84.19
21574;BME280;10948;48.706;9.258;2022-11-20T13:27:18;97255.44;;;11.83;80.55
21574;BME280;10948;48.706;9.258;2022-11-20T13:29:46;97250.47;;;11.91;76.12
21574;BME280;10948;48.706;9.258;2022-11-20T13:32:19;97242.72;;;11.78;75.69
21574;BME280;10948;48.706;9.258;2022-11-20T13:37:40;97242.69;;;11.55;76.25
21574;BME280;10948;48.706;9.258;2022-11-20T13:42:31;97231.81;;;11.01;78.09
21574;BME280;10948;48.706;9.258;2022-11-20T13:45:01;97230.00;;;10.66;76.58
21574;BME280;10948;48.706;9.258;2022-11-20T13:47:27;97218.06;;;10.26;79.20
21574;BME280;10948;48.706;9.258;2022-11-20T13:49:53;97228.88;;;9.81;82.51
21574;BME280;10948;48.706;9.258;2022-11-20T14:00:03;97217.91;;;9.64;83.25
21574;BME280;10948;48.706;9.258;2022-11-20T14:02:29;97221.59;;;9.86;82.41
21574;BME280;10948;48.706;9.258;2022-11-20T14:04:56;97222.94;;;9.79;81.97
21574;BME280;10948;48.706;9.258;2022-11-20T14:07:24;97219.47;;;9.66;79.66
21574;BME280;10948;48.706;9.258;2022-11-20T14:09:51;97223.25;;;9.75;80.37
21574;BME280;10948;48.706;9.258;2022-11-20T14:12:17;97225.94;;;9.73;82.44
21574;BME280;10948;48.706;9.258;2022-11-20T14:14:47;97220.59;;;9.62;85.79
21574;BME280;10948;48.706;9.258;2022-11-20T14:17:21;97230.00;;;9.38;89.88
21574;BME280;10948;48.706;9.258;2022-11-20T14:19:47;97228.75;;;9.17;90.68
21574;BME280;10948;48.706;9.258;2022-11-20T14:24:38;97223.81;;;9.13;94.70
21574;BME280;10948;48.706;9.258;2022-11-20T14:27:04;97239.34;;;9.00;91.72
21574;BME280;10948;48.706;9.258;2022-11-20T14:29:33;97231.22;;;8.92;89.12
21574;BME280;10948;48.706;9.258;2022-11-20T14:31:59;97236.78;;;8.86;89.16
21574;BME280;10948;48.706;9.258;2022-11-20T14:34:27;97239.84;;;8.79;90.20
21574;BME280;10948;48.706;9.258;2022-11-20T14:36:59;97234.56;;;8.66;92.38
21574;BME280;10948;48.706;9.258;2022-11-20T14:39:28;97226.06;;;8.64;95.01